createdAt,value
2023-03-29T00:04:53.864Z,10.19
2023-03-29T00:09:57.017Z,10.23
2023-03-29T00:15:00.109Z,10.33
2023-03-29T00:20:06.580Z,10.30
2023-03-29T00:25:13.252Z,10.22
2023-03-29T00:30:16.892Z,10.22
2023-03-29T00:35:20.214Z,10.22
2023-03-29T00:40:23.801Z,10.22
2023-03-29T00:45:30.813Z,10.16
2023-03-29T00:50:39.860Z,10.16
2023-03-29T00:56:12.191Z,10.10
2023-03-29T01:01:19.844Z,9.87
2023-03-29T01:06:29.600Z,9.84
2023-03-29T01:11:40.330Z,9.71
2023-03-29T01:16:43.538Z,9.59
2023-03-29T01:21:53.250Z,9.51
2023-03-29T01:27:02.373Z,9.49
2023-03-29T01:32:23.680Z,9.25
2023-03-29T01:37:42.824Z,9.12
2023-03-29T01:42:50.040Z,9.11
2023-03-29T01:48:09.136Z,9.01
2023-03-29T01:53:24.605Z,9.01
2023-03-29T01:58:34.159Z,9.04
2023-03-29T02:03:42.671Z,8.90
2023-03-29T02:08:46.985Z,8.98
2023-03-29T02:13:50.036Z,8.94
2023-03-29T02:18:56.644Z,8.96
2023-03-29T02:24:03.681Z,8.90
2023-03-29T02:29:06.798Z,8.84
2023-03-29T02:34:27.116Z,8.71
2023-03-29T02:39:34.020Z,8.64
2023-03-29T02:44:41.790Z,8.80
2023-03-29T02:49:45.974Z,8.72
2023-03-29T02:54:51.624Z,8.77
2023-03-29T02:59:57.298Z,8.65
2023-03-29T03:05:00.356Z,8.47
2023-03-29T03:10:04.303Z,8.74
2023-03-29T03:15:08.171Z,8.59
2023-03-29T03:20:15.392Z,8.76
2023-03-29T03:25:49.683Z,8.82
2023-03-29T03:31:10.558Z,8.87
2023-03-29T03:36:31.904Z,8.79
2023-03-29T03:41:42.098Z,8.64
2023-03-29T03:46:45.201Z,8.82
2023-03-29T03:51:49.379Z,8.69
2023-03-29T03:56:54.559Z,8.76
2023-03-29T04:02:12.657Z,8.84
2023-03-29T04:07:18.156Z,9.12
2023-03-29T04:12:33.274Z,9.52
2023-03-29T04:17:37.232Z,9.89
2023-03-29T04:23:03.579Z,10.08
2023-03-29T04:28:07.290Z,9.93
2023-03-29T04:33:29.616Z,9.99
2023-03-29T04:38:36.432Z,10.00
2023-03-29T04:43:41.649Z,10.08
2023-03-29T04:48:53.132Z,10.20
2023-03-29T04:54:06.864Z,10.13
2023-03-29T04:59:33.037Z,10.21
2023-03-29T05:04:38.614Z,10.19
2023-03-29T05:09:48.909Z,10.44
2023-03-29T05:14:52.004Z,10.23
2023-03-29T05:19:56.756Z,10.27
2023-03-29T05:25:01.937Z,10.31
2023-03-29T05:30:06.817Z,10.66
2023-03-29T05:35:19.315Z,10.89
2023-03-29T05:40:22.685Z,10.88
2023-03-29T05:45:49.003Z,10.87
2023-03-29T05:50:54.092Z,11.29
2023-03-29T05:55:57.538Z,11.44
2023-03-29T06:01:04.975Z,11.72
2023-03-29T06:06:25.946Z,11.70
2023-03-29T06:11:29.150Z,12.03
2023-03-29T06:16:50.578Z,12.37
2023-03-29T06:21:54.709Z,12.68
2023-03-29T06:27:01.757Z,12.67
2023-03-29T06:32:07.405Z,13.08
2023-03-29T06:37:32.297Z,13.40
2023-03-29T06:42:46.825Z,13.63
2023-03-29T06:48:25.175Z,13.92
2023-03-29T06:53:28.592Z,14.30
2023-03-29T06:58:38.096Z,14.24
2023-03-29T07:04:05.135Z,14.51
2023-03-29T07:09:19.442Z,14.20
2023-03-29T07:14:54.768Z,14.65
2023-03-29T07:20:01.450Z,14.66
2023-03-29T07:25:24.157Z,14.80
2023-03-29T07:30:32.416Z,14.54
2023-03-29T07:35:49.726Z,14.47
2023-03-29T07:40:54.697Z,14.52
2023-03-29T07:46:22.350Z,14.89
2023-03-29T07:51:28.127Z,14.93
2023-03-29T07:56:43.111Z,14.73
2023-03-29T08:02:01.607Z,15.06
2023-03-29T08:07:12.895Z,14.82
2023-03-29T08:12:47.513Z,15.31
2023-03-29T08:17:52.760Z,15.53
2023-03-29T08:22:57.944Z,15.50
2023-03-29T08:28:12.782Z,15.72
2023-03-29T08:33:24.477Z,16.06
2023-03-29T08:38:37.992Z,16.02
2023-03-29T08:44:03.445Z,15.93
2023-03-29T08:49:44.333Z,15.72
2023-03-29T08:54:53.461Z,15.82
2023-03-29T09:00:10.906Z,15.49
2023-03-29T09:05:31.561Z,15.57
2023-03-29T09:11:17.779Z,15.66
2023-03-29T09:16:39.484Z,15.88
2023-03-29T09:21:56.892Z,15.70
2023-03-29T09:27:28.386Z,15.68
2023-03-29T09:32:57.821Z,15.51
2023-03-29T09:38:15.360Z,15.42
2023-03-29T09:43:31.135Z,15.57
2023-03-29T09:48:41.789Z,15.64
2023-03-29T09:53:45.225Z,15.74
2023-03-29T09:59:12.661Z,15.91
2023-03-29T10:04:17.209Z,15.99
2023-03-29T10:09:29.804Z,16.08
2023-03-29T10:14:53.983Z,16.19
2023-03-29T10:20:09.666Z,16.16
2023-03-29T10:25:15.193Z,16.37
2023-03-29T10:30:23.476Z,15.98
2023-03-29T10:35:42.035Z,16.01
2023-03-29T10:40:47.618Z,15.95
2023-03-29T10:45:54.178Z,15.96
2023-03-29T10:51:06.286Z,15.76
2023-03-29T10:56:24.755Z,15.69
2023-03-29T11:01:34.912Z,15.64
2023-03-29T11:06:53.137Z,15.96
2023-03-29T11:12:15.698Z,16.09
2023-03-29T11:17:46.281Z,16.19
2023-03-29T11:23:21.175Z,16.39
2023-03-29T11:28:40.364Z,16.38
2023-03-29T11:34:19.990Z,16.50
2023-03-29T11:39:23.963Z,16.65
2023-03-29T11:44:36.347Z,16.58
2023-03-29T11:50:06.939Z,16.56
2023-03-29T11:55:18.775Z,16.40
2023-03-29T12:00:33.674Z,16.56
2023-03-29T12:05:57.564Z,16.80
2023-03-29T12:11:21.177Z,17.20
2023-03-29T12:16:48.490Z,17.08
2023-03-29T12:21:54.531Z,17.10
2023-03-29T12:27:20.989Z,17.11
2023-03-29T12:32:32.778Z,17.05
2023-03-29T12:38:17.104Z,16.97
2023-03-29T12:43:43.766Z,16.56
2023-03-29T12:49:28.579Z,16.61
2023-03-29T12:54:33.350Z,16.39
2023-03-29T12:59:50.008Z,16.43
2023-03-29T13:04:55.933Z,16.56
2023-03-29T13:10:08.516Z,16.53
2023-03-29T13:15:17.922Z,16.63
2023-03-29T13:20:37.747Z,16.47
2023-03-29T13:26:04.242Z,16.47
2023-03-29T13:31:25.985Z,16.43
2023-03-29T13:36:46.555Z,16.39
2023-03-29T13:41:53.506Z,16.28
2023-03-29T13:47:16.796Z,16.29
2023-03-29T13:52:39.922Z,16.17
2023-03-29T13:57:52.935Z,16.03
2023-03-29T14:03:01.811Z,15.92
2023-03-29T14:08:13.919Z,15.90
2023-03-29T14:13:22.867Z,15.89
2023-03-29T14:18:29.128Z,15.76
2023-03-29T14:23:34.300Z,15.65
2023-03-29T14:28:43.863Z,15.53
2023-03-29T14:33:52.856Z,15.64
2023-03-29T14:39:06.203Z,15.46
2023-03-29T14:44:09.613Z,15.51
2023-03-29T14:49:17.491Z,15.53
2023-03-29T14:54:29.053Z,15.39
2023-03-29T14:59:35.039Z,15.34
2023-03-29T15:04:39.316Z,15.23
2023-03-29T15:09:45.696Z,15.17
2023-03-29T15:14:52.046Z,15.04
2023-03-29T15:20:00.333Z,14.96
2023-03-29T15:25:04.055Z,14.91
2023-03-29T15:30:17.066Z,14.80
2023-03-29T15:35:25.179Z,14.74
2023-03-29T15:40:28.473Z,14.58
2023-03-29T15:45:31.480Z,14.58
2023-03-29T15:50:34.530Z,14.46
2023-03-29T15:55:42.040Z,14.45
2023-03-29T16:00:51.728Z,14.28
2023-03-29T16:05:57.108Z,14.29
2023-03-29T16:11:00.215Z,14.22
2023-03-29T16:16:03.709Z,14.22
2023-03-29T16:21:08.023Z,14.28
2023-03-29T16:26:16.897Z,14.02
2023-03-29T16:31:20.763Z,14.08
2023-03-29T16:36:23.930Z,14.03
2023-03-29T16:41:27.436Z,13.99
2023-03-29T16:46:31.146Z,14.01
2023-03-29T16:51:34.242Z,13.90
2023-03-29T16:56:37.366Z,13.92
2023-03-29T17:01:40.973Z,13.74
2023-03-29T17:06:44.185Z,13.81
2023-03-29T17:11:47.136Z,13.69
2023-03-29T17:16:50.237Z,13.63
2023-03-29T17:21:53.285Z,13.44
2023-03-29T17:26:57.570Z,13.42
2023-03-29T17:32:00.722Z,13.20
2023-03-29T17:37:04.045Z,13.02
2023-03-29T17:42:10.130Z,13.01
2023-03-29T17:47:13.212Z,12.91
2023-03-29T17:52:16.258Z,12.78
2023-03-29T17:57:19.287Z,12.81
2023-03-29T18:02:24.315Z,12.79
2023-03-29T18:07:28.349Z,12.63
2023-03-29T18:12:31.397Z,12.82
2023-03-29T18:17:36.135Z,12.75
2023-03-29T18:22:41.607Z,12.74
2023-03-29T18:27:44.647Z,12.69
2023-03-29T18:32:47.690Z,12.69
2023-03-29T18:37:51.844Z,12.73
2023-03-29T18:42:54.853Z,12.81
2023-03-29T18:47:58.033Z,12.76
2023-03-29T18:53:01.829Z,12.79
2023-03-29T18:58:04.927Z,12.89
2023-03-29T19:03:08.871Z,12.90
2023-03-29T19:08:12.123Z,12.80
2023-03-29T19:13:15.294Z,12.84
2023-03-29T19:18:18.407Z,12.91
2023-03-29T19:23:23.094Z,12.69
2023-03-29T19:28:27.643Z,12.79
2023-03-29T19:33:30.906Z,12.79
2023-03-29T19:38:33.919Z,12.64
2023-03-29T19:43:36.954Z,12.55
2023-03-29T19:48:40.466Z,12.37
2023-03-29T19:53:43.735Z,12.39
2023-03-29T19:58:48.513Z,12.27
2023-03-29T20:03:51.688Z,12.27
2023-03-29T20:08:55.173Z,12.18
2023-03-29T20:13:58.200Z,12.12
2023-03-29T20:19:02.343Z,11.96
2023-03-29T20:24:06.412Z,11.73
2023-03-29T20:29:09.456Z,11.89
2023-03-29T20:34:12.756Z,11.68
2023-03-29T20:39:19.092Z,11.49
2023-03-29T20:44:28.609Z,11.36
2023-03-29T20:49:39.029Z,11.26
2023-03-29T20:54:43.458Z,11.25
2023-03-29T20:59:48.429Z,11.15
2023-03-29T21:04:52.805Z,11.15
2023-03-29T21:09:55.878Z,11.15
2023-03-29T21:14:58.842Z,11.13
2023-03-29T21:20:02.882Z,11.10
2023-03-29T21:25:08.482Z,10.90
2023-03-29T21:30:11.973Z,10.93
2023-03-29T21:35:15.142Z,10.94
2023-03-29T21:40:18.170Z,11.09
2023-03-29T21:45:21.378Z,11.05
2023-03-29T21:50:24.533Z,10.83
2023-03-29T21:55:27.811Z,10.93
2023-03-29T22:00:31.592Z,10.93
2023-03-29T22:05:35.241Z,10.98
2023-03-29T22:10:41.662Z,11.01
2023-03-29T22:15:45.353Z,10.94
2023-03-29T22:20:48.763Z,10.89
2023-03-29T22:25:51.760Z,10.76
2023-03-29T22:30:54.730Z,10.63
2023-03-29T22:35:57.782Z,10.48
2023-03-29T22:41:01.810Z,10.56
2023-03-29T22:46:07.266Z,10.43
2023-03-29T22:51:10.352Z,10.38
2023-03-29T22:56:14.635Z,10.47
2023-03-29T23:01:17.764Z,10.38
2023-03-29T23:06:20.840Z,10.51
2023-03-29T23:11:23.904Z,10.44
2023-03-29T23:16:26.964Z,10.52
2023-03-29T23:21:30.071Z,10.42
2023-03-29T23:26:33.823Z,10.53
2023-03-29T23:31:38.007Z,10.45
2023-03-29T23:36:41.280Z,10.38
2023-03-29T23:41:44.439Z,10.54
2023-03-29T23:46:47.558Z,10.43
2023-03-29T23:51:50.853Z,10.48
2023-03-29T23:56:53.923Z,10.57
